Legend — WDF9316 — position and weather

sailwx.info

Track history (hours):
 
Tides and Currents Weather Stations Pressure Air Temp Water Temp Dewpoint Dewpoint Depression Visibility Wind Speed Wind Dir Waves Ship Positions

Legend

Owner: Crowley Maritime, Seattle, WA. More information available from US FCC via Universal Licensing System and Coast Guard Vessel Documentation Center.

Last reported at 2015-May-22 17:28 UTC. Time now 2015-May-25 03:32 UTC.
Position N 25°23' W 080°01'.

Length 212 m; draft 7.8 m.

Type: Towing. MMSI: 366709000.

Date/timePositionNaut miles runAvg speedWind from/ knotsBaromVisibWave heightAir tempDewpointWater temp
2015-May-22 17:28N 25°23' W 080°01'1010.5
2015-May-22 16:33N 25°33' W 080°01'1010.5
2015-May-22 15:33N 25°43' W 080°01'1111.1
2015-May-22 14:33N 25°54' W 080°01'1010.0
2015-May-22 13:33N 26°04' W 080°03'4 3.3
2015-May-22 12:23N 26°06' W 080°07'0 0.0
2015-May-22 11:32N 26°06' W 080°07'0 0.0
2015-May-22 10:23N 26°06' W 080°07'0 0.0
2015-May-22 09:26N 26°06' W 080°07'0 0.0
2015-May-22 08:26N 26°06' W 080°07'0 0.0
2015-May-22 07:26N 26°06' W 080°07'0 0.0
2015-May-22 06:29N 26°06' W 080°07'0 0.0
2015-May-22 05:29N 26°06' W 080°07'0 0.0
2015-May-22 04:29N 26°06' W 080°07'0 0.0
2015-May-22 03:32N 26°06' W 080°07'0 0.0
2015-May-22 02:32N 26°06' W 080°07'0 0.0
2015-May-22 01:32N 26°06' W 080°07'0 0.0
2015-May-22 00:32N 26°06' W 080°07'0 0.0
2015-May-21 23:32N 26°06' W 080°07'0 0.0
2015-May-21 22:32N 26°06' W 080°07'0 0.0
2015-May-21 21:32N 26°06' W 080°07'0 0.0
2015-May-21 20:23N 26°06' W 080°07'0 0.0
2015-May-21 19:23N 26°06' W 080°07'0 0.0
2015-May-21 18:26N 26°06' W 080°07'0 0.0
2015-May-21 17:26N 26°06' W 080°07'0 0.0
2015-May-21 16:26N 26°06' W 080°07'0 0.0
2015-May-21 15:29N 26°06' W 080°07'0 0.0
2015-May-21 14:26N 26°06' W 080°07'0 0.0
2015-May-21 13:32N 26°06' W 080°07'0 0.0
2015-May-21 12:32N 26°06' W 080°07'0 0.0
2015-May-21 11:32N 26°06' W 080°07'0 0.0
2015-May-21 10:32N 26°06' W 080°07'0 0.0
2015-May-21 09:32N 26°06' W 080°07'0 0.0
2015-May-21 08:32N 26°06' W 080°07'0 0.0
2015-May-21 07:32N 26°06' W 080°07'0 0.0
2015-May-21 06:32N 26°06' W 080°07'0 0.0
2015-May-21 05:23N 26°06' W 080°07'0 0.0
2015-May-21 04:26N 26°06' W 080°07'0 0.0
2015-May-21 03:26N 26°06' W 080°07'0 0.0
2015-May-21 02:26N 26°06' W 080°07'0 0.0
2015-May-21 01:29N 26°06' W 080°07'0 0.0
2015-May-21 00:29N 26°06' W 080°07'0 0.0
2015-May-20 23:29N 26°06' W 080°07'0 0.2
2015-May-20 22:33N 26°06' W 080°07'6 6.0
2015-May-20 21:33N 26°08' W 080°01'3 3.5
2015-May-20 20:33N 26°12' W 080°01'2 1.7
2015-May-20 19:33N 26°11' W 080°02'2 1.9
2015-May-20 18:33N 26°09' W 080°02'5 4.9
2015-May-20 17:34N 26°04' W 080°01'1515.0
2015-May-20 16:34N 25°49' W 079°58'  
2015-May-18 06:13N 29°58' W 090°03'7 7.9
2015-May-18 05:18N 29°56' W 090°11'  
2015-May-16 01:17N 29°57' W 090°09'5 4.7
2015-May-16 00:15N 29°57' W 090°03'5 6.0
2015-May-15 23:25N 29°55' W 089°58'  
2015-May-13 07:05N 25°34' W 080°01'5 9.0
2015-May-13 06:33N 25°39' W 080°01'9 9.0
2015-May-13 05:33N 25°48' W 080°01'9 9.1
2015-May-13 04:33N 25°57' W 080°01'9 9.3
2015-May-13 03:33N 26°05' W 080°05'2 2.2
2015-May-13 02:31N 26°06' W 080°07'0 0.0
2015-May-13 01:34N 26°06' W 080°07'0 0.0
2015-May-13 00:31N 26°06' W 080°07'0 0.0
2015-May-12 23:31N 26°06' W 080°07'0 0.0
2015-May-12 22:34N 26°06' W 080°07'0 0.0
2015-May-12 21:34N 26°06' W 080°07'0 0.0
2015-May-12 20:22N 26°06' W 080°07'0 0.0
2015-May-12 19:34N 26°06' W 080°07'0 0.0
2015-May-12 18:25N 26°06' W 080°07'  
Track history (hours):
 
Tides and Currents Weather Stations Pressure Air Temp Water Temp Dewpoint Dewpoint Depression Visibility Wind Speed Wind Dir Waves Ship Positions

Legend

Owner: Crowley Maritime, Seattle, WA. More information available from US FCC via Universal Licensing System and Coast Guard Vessel Documentation Center.

Last reported at 2015-May-22 17:28 UTC. Time now 2015-May-25 03:32 UTC.
Position N 25°23' W 080°01'.

Length 212 m; draft 7.8 m.

Type: Towing. MMSI: 366709000.

Date/timePositionNaut miles runAvg speedWind from/ knotsBaromVisibWave heightAir tempDewpointWater temp
2015-May-22 17:28N 25°23' W 080°01'1010.5
2015-May-22 16:33N 25°33' W 080°01'1010.5
2015-May-22 15:33N 25°43' W 080°01'1111.1
2015-May-22 14:33N 25°54' W 080°01'1010.0
2015-May-22 13:33N 26°04' W 080°03'4 3.3
2015-May-22 12:23N 26°06' W 080°07'0 0.0
2015-May-22 11:32N 26°06' W 080°07'0 0.0
2015-May-22 10:23N 26°06' W 080°07'0 0.0
2015-May-22 09:26N 26°06' W 080°07'0 0.0
2015-May-22 08:26N 26°06' W 080°07'0 0.0
2015-May-22 07:26N 26°06' W 080°07'0 0.0
2015-May-22 06:29N 26°06' W 080°07'0 0.0
2015-May-22 05:29N 26°06' W 080°07'0 0.0
2015-May-22 04:29N 26°06' W 080°07'0 0.0
2015-May-22 03:32N 26°06' W 080°07'0 0.0
2015-May-22 02:32N 26°06' W 080°07'0 0.0
2015-May-22 01:32N 26°06' W 080°07'0 0.0
2015-May-22 00:32N 26°06' W 080°07'0 0.0
2015-May-21 23:32N 26°06' W 080°07'0 0.0
2015-May-21 22:32N 26°06' W 080°07'0 0.0
2015-May-21 21:32N 26°06' W 080°07'0 0.0
2015-May-21 20:23N 26°06' W 080°07'0 0.0
2015-May-21 19:23N 26°06' W 080°07'0 0.0
2015-May-21 18:26N 26°06' W 080°07'0 0.0
2015-May-21 17:26N 26°06' W 080°07'0 0.0
2015-May-21 16:26N 26°06' W 080°07'0 0.0
2015-May-21 15:29N 26°06' W 080°07'0 0.0
2015-May-21 14:26N 26°06' W 080°07'0 0.0
2015-May-21 13:32N 26°06' W 080°07'0 0.0
2015-May-21 12:32N 26°06' W 080°07'0 0.0
2015-May-21 11:32N 26°06' W 080°07'0 0.0
2015-May-21 10:32N 26°06' W 080°07'0 0.0
2015-May-21 09:32N 26°06' W 080°07'0 0.0
2015-May-21 08:32N 26°06' W 080°07'0 0.0
2015-May-21 07:32N 26°06' W 080°07'0 0.0
2015-May-21 06:32N 26°06' W 080°07'0 0.0
2015-May-21 05:23N 26°06' W 080°07'0 0.0
2015-May-21 04:26N 26°06' W 080°07'0 0.0
2015-May-21 03:26N 26°06' W 080°07'0 0.0
2015-May-21 02:26N 26°06' W 080°07'0 0.0
2015-May-21 01:29N 26°06' W 080°07'0 0.0
2015-May-21 00:29N 26°06' W 080°07'0 0.0
2015-May-20 23:29N 26°06' W 080°07'0 0.2
2015-May-20 22:33N 26°06' W 080°07'6 6.0
2015-May-20 21:33N 26°08' W 080°01'3 3.5
2015-May-20 20:33N 26°12' W 080°01'2 1.7
2015-May-20 19:33N 26°11' W 080°02'2 1.9
2015-May-20 18:33N 26°09' W 080°02'5 4.9
2015-May-20 17:34N 26°04' W 080°01'1515.0
2015-May-20 16:34N 25°49' W 079°58'  
2015-May-18 06:13N 29°58' W 090°03'7 7.9
2015-May-18 05:18N 29°56' W 090°11'  
2015-May-16 01:17N 29°57' W 090°09'5 4.7
2015-May-16 00:15N 29°57' W 090°03'5 6.0
2015-May-15 23:25N 29°55' W 089°58'  
2015-May-13 07:05N 25°34' W 080°01'5 9.0
2015-May-13 06:33N 25°39' W 080°01'9 9.0
2015-May-13 05:33N 25°48' W 080°01'9 9.1
2015-May-13 04:33N 25°57' W 080°01'9 9.3
2015-May-13 03:33N 26°05' W 080°05'2 2.2
2015-May-13 02:31N 26°06' W 080°07'0 0.0
2015-May-13 01:34N 26°06' W 080°07'0 0.0
2015-May-13 00:31N 26°06' W 080°07'0 0.0
2015-May-12 23:31N 26°06' W 080°07'0 0.0
2015-May-12 22:34N 26°06' W 080°07'0 0.0
2015-May-12 21:34N 26°06' W 080°07'0 0.0
2015-May-12 20:22N 26°06' W 080°07'0 0.0
2015-May-12 19:34N 26°06' W 080°07'0 0.0
2015-May-12 18:25N 26°06' W 080°07'  

Dump ship's entire track history